sensor_id;sensor_type;location;lat;lon;timestamp;P1;durP1;ratioP1;P2;durP2;ratioP2
29432;SDS011;16405;53.964;13.448;2023-03-30T00:01:21;17.60;;;10.65;;
29432;SDS011;16405;53.964;13.448;2023-03-30T00:03:47;19.88;;;10.82;;
29432;SDS011;16405;53.964;13.448;2023-03-30T00:06:14;15.13;;;10.43;;
29432;SDS011;16405;53.964;13.448;2023-03-30T00:08:48;17.77;;;11.25;;
29432;SDS011;16405;53.964;13.448;2023-03-30T00:11:21;19.35;;;11.23;;
29432;SDS011;16405;53.964;13.448;2023-03-30T00:13:49;16.48;;;9.90;;
29432;SDS011;16405;53.964;13.448;2023-03-30T00:16:16;16.95;;;10.43;;
29432;SDS011;16405;53.964;13.448;2023-03-30T00:18:43;18.65;;;10.57;;
29432;SDS011;16405;53.964;13.448;2023-03-30T00:21:09;22.45;;;11.15;;
29432;SDS011;16405;53.964;13.448;2023-03-30T00:23:41;19.00;;;10.13;;
29432;SDS011;16405;53.964;13.448;2023-03-30T00:26:10;19.92;;;10.77;;
29432;SDS011;16405;53.964;13.448;2023-03-30T00:28:37;18.58;;;10.90;;
29432;SDS011;16405;53.964;13.448;2023-03-30T00:31:08;22.30;;;11.07;;
29432;SDS011;16405;53.964;13.448;2023-03-30T00:33:35;20.45;;;11.05;;
29432;SDS011;16405;53.964;13.448;2023-03-30T00:36:02;16.55;;;10.90;;
29432;SDS011;16405;53.964;13.448;2023-03-30T00:38:28;15.73;;;11.43;;
29432;SDS011;16405;53.964;13.448;2023-03-30T00:40:55;18.10;;;10.50;;
29432;SDS011;16405;53.964;13.448;2023-03-30T00:43:26;21.08;;;10.93;;
29432;SDS011;16405;53.964;13.448;2023-03-30T00:45:54;18.95;;;11.23;;
29432;SDS011;16405;53.964;13.448;2023-03-30T00:48:31;18.40;;;11.00;;
29432;SDS011;16405;53.964;13.448;2023-03-30T00:51:02;17.42;;;10.77;;
29432;SDS011;16405;53.964;13.448;2023-03-30T00:53:36;18.67;;;10.98;;
29432;SDS011;16405;53.964;13.448;2023-03-30T00:56:12;18.10;;;11.00;;
29432;SDS011;16405;53.964;13.448;2023-03-30T00:58:41;15.40;;;10.70;;
29432;SDS011;16405;53.964;13.448;2023-03-30T01:01:14;16.85;;;10.48;;
29432;SDS011;16405;53.964;13.448;2023-03-30T01:03:49;13.73;;;10.38;;
29432;SDS011;16405;53.964;13.448;2023-03-30T01:06:25;14.77;;;10.35;;
29432;SDS011;16405;53.964;13.448;2023-03-30T01:08:57;17.60;;;10.05;;
29432;SDS011;16405;53.964;13.448;2023-03-30T01:11:26;19.90;;;11.50;;
29432;SDS011;16405;53.964;13.448;2023-03-30T01:13:56;18.42;;;11.00;;
29432;SDS011;16405;53.964;13.448;2023-03-30T01:16:39;18.23;;;11.50;;
29432;SDS011;16405;53.964;13.448;2023-03-30T01:22:24;15.95;;;10.05;;
29432;SDS011;16405;53.964;13.448;2023-03-30T01:25:33;18.40;;;11.00;;
29432;SDS011;16405;53.964;13.448;2023-03-30T01:28:39;18.05;;;10.38;;
29432;SDS011;16405;53.964;13.448;2023-03-30T01:31:43;15.23;;;9.82;;
29432;SDS011;16405;53.964;13.448;2023-03-30T01:34:55;22.15;;;10.75;;
29432;SDS011;16405;53.964;13.448;2023-03-30T01:43:25;20.15;;;10.90;;
29432;SDS011;16405;53.964;13.448;2023-03-30T01:46:21;17.30;;;10.95;;
29432;SDS011;16405;53.964;13.448;2023-03-30T01:49:02;16.40;;;11.70;;
29432;SDS011;16405;53.964;13.448;2023-03-30T01:51:52;19.52;;;11.52;;
29432;SDS011;16405;53.964;13.448;2023-03-30T01:54:57;19.52;;;12.48;;
29432;SDS011;16405;53.964;13.448;2023-03-30T01:57:44;23.20;;;12.07;;
29432;SDS011;16405;53.964;13.448;2023-03-30T02:00:44;20.63;;;12.65;;
29432;SDS011;16405;53.964;13.448;2023-03-30T02:03:26;26.85;;;13.45;;
29432;SDS011;16405;53.964;13.448;2023-03-30T02:06:02;22.27;;;13.10;;
29432;SDS011;16405;53.964;13.448;2023-03-30T02:08:36;23.83;;;14.15;;
29432;SDS011;16405;53.964;13.448;2023-03-30T02:11:05;25.33;;;14.40;;
29432;SDS011;16405;53.964;13.448;2023-03-30T02:13:35;24.27;;;14.63;;
29432;SDS011;16405;53.964;13.448;2023-03-30T02:16:48;21.88;;;13.98;;
29432;SDS011;16405;53.964;13.448;2023-03-30T02:19:10;30.80;;;14.50;;
29432;SDS011;16405;53.964;13.448;2023-03-30T02:21:36;25.50;;;14.63;;
29432;SDS011;16405;53.964;13.448;2023-03-30T02:24:16;29.08;;;16.02;;
29432;SDS011;16405;53.964;13.448;2023-03-30T02:26:52;24.17;;;15.37;;
29432;SDS011;16405;53.964;13.448;2023-03-30T02:29:19;30.33;;;15.65;;
29432;SDS011;16405;53.964;13.448;2023-03-30T02:31:48;32.72;;;16.20;;
29432;SDS011;16405;53.964;13.448;2023-03-30T02:34:43;27.40;;;16.08;;
29432;SDS011;16405;53.964;13.448;2023-03-30T02:55:45;28.85;;;15.20;;
29432;SDS011;16405;53.964;13.448;2023-03-30T02:59:03;28.75;;;16.60;;
29432;SDS011;16405;53.964;13.448;2023-03-30T03:01:54;32.50;;;17.50;;
29432;SDS011;16405;53.964;13.448;2023-03-30T03:04:48;29.13;;;16.63;;
29432;SDS011;16405;53.964;13.448;2023-03-30T03:07:17;29.30;;;16.58;;
29432;SDS011;16405;53.964;13.448;2023-03-30T03:09:47;25.83;;;17.48;;
29432;SDS011;16405;53.964;13.448;2023-03-30T03:12:14;37.05;;;17.73;;
29432;SDS011;16405;53.964;13.448;2023-03-30T03:14:42;32.58;;;17.52;;
29432;SDS011;16405;53.964;13.448;2023-03-30T03:17:17;28.00;;;16.85;;
29432;SDS011;16405;53.964;13.448;2023-03-30T03:20:02;28.05;;;16.35;;
29432;SDS011;16405;53.964;13.448;2023-03-30T03:22:35;35.55;;;19.48;;
29432;SDS011;16405;53.964;13.448;2023-03-30T03:25:07;37.17;;;20.20;;
29432;SDS011;16405;53.964;13.448;2023-03-30T03:27:55;25.40;;;16.27;;
29432;SDS011;16405;53.964;13.448;2023-03-30T03:30:22;38.33;;;19.23;;
29432;SDS011;16405;53.964;13.448;2023-03-30T03:32:49;37.95;;;20.63;;
29432;SDS011;16405;53.964;13.448;2023-03-30T03:35:15;31.73;;;18.98;;
29432;SDS011;16405;53.964;13.448;2023-03-30T03:37:50;30.48;;;18.75;;
29432;SDS011;16405;53.964;13.448;2023-03-30T03:40:17;34.70;;;18.73;;
29432;SDS011;16405;53.964;13.448;2023-03-30T03:43:13;40.53;;;21.42;;
29432;SDS011;16405;53.964;13.448;2023-03-30T03:45:48;34.80;;;20.38;;
29432;SDS011;16405;53.964;13.448;2023-03-30T03:48:22;32.33;;;20.58;;
29432;SDS011;16405;53.964;13.448;2023-03-30T03:51:00;36.85;;;21.15;;
29432;SDS011;16405;53.964;13.448;2023-03-30T03:53:26;39.20;;;22.15;;
29432;SDS011;16405;53.964;13.448;2023-03-30T03:55:57;38.75;;;22.67;;
29432;SDS011;16405;53.964;13.448;2023-03-30T03:58:24;39.42;;;24.08;;
29432;SDS011;16405;53.964;13.448;2023-03-30T04:00:50;39.42;;;24.52;;
29432;SDS011;16405;53.964;13.448;2023-03-30T04:03:31;33.10;;;20.48;;
29432;SDS011;16405;53.964;13.448;2023-03-30T04:05:58;37.95;;;22.15;;
29432;SDS011;16405;53.964;13.448;2023-03-30T04:08:49;40.35;;;25.17;;
29432;SDS011;16405;53.964;13.448;2023-03-30T04:14:13;40.83;;;24.15;;
29432;SDS011;16405;53.964;13.448;2023-03-30T04:16:53;43.50;;;26.88;;
29432;SDS011;16405;53.964;13.448;2023-03-30T04:19:33;44.20;;;26.23;;
29432;SDS011;16405;53.964;13.448;2023-03-30T04:22:10;40.65;;;26.05;;
29432;SDS011;16405;53.964;13.448;2023-03-30T04:24:45;46.97;;;25.73;;
29432;SDS011;16405;53.964;13.448;2023-03-30T04:27:41;50.67;;;27.05;;
29432;SDS011;16405;53.964;13.448;2023-03-30T04:30:10;44.00;;;26.92;;
29432;SDS011;16405;53.964;13.448;2023-03-30T04:32:46;44.60;;;27.55;;
29432;SDS011;16405;53.964;13.448;2023-03-30T04:35:44;47.92;;;28.77;;
29432;SDS011;16405;53.964;13.448;2023-03-30T04:38:10;48.78;;;29.65;;
29432;SDS011;16405;53.964;13.448;2023-03-30T04:40:36;49.40;;;29.58;;
29432;SDS011;16405;53.964;13.448;2023-03-30T04:43:10;52.22;;;30.20;;
29432;SDS011;16405;53.964;13.448;2023-03-30T04:45:41;48.38;;;28.77;;
29432;SDS011;16405;53.964;13.448;2023-03-30T04:48:20;51.40;;;30.50;;
29432;SDS011;16405;53.964;13.448;2023-03-30T04:50:56;47.40;;;29.95;;
29432;SDS011;16405;53.964;13.448;2023-03-30T04:53:40;50.03;;;30.58;;
29432;SDS011;16405;53.964;13.448;2023-03-30T04:56:19;46.75;;;28.45;;
29432;SDS011;16405;53.964;13.448;2023-03-30T04:58:55;39.17;;;22.48;;
29432;SDS011;16405;53.964;13.448;2023-03-30T05:01:21;37.97;;;21.70;;
29432;SDS011;16405;53.964;13.448;2023-03-30T05:03:48;46.70;;;29.02;;
29432;SDS011;16405;53.964;13.448;2023-03-30T05:06:14;47.28;;;27.02;;
29432;SDS011;16405;53.964;13.448;2023-03-30T05:08:58;48.97;;;29.55;;
29432;SDS011;16405;53.964;13.448;2023-03-30T05:11:45;50.83;;;31.77;;
29432;SDS011;16405;53.964;13.448;2023-03-30T05:14:11;52.78;;;29.67;;
29432;SDS011;16405;53.964;13.448;2023-03-30T05:17:14;51.27;;;29.83;;
29432;SDS011;16405;53.964;13.448;2023-03-30T05:19:46;43.10;;;25.90;;
29432;SDS011;16405;53.964;13.448;2023-03-30T05:22:25;51.55;;;30.40;;
29432;SDS011;16405;53.964;13.448;2023-03-30T05:24:51;46.20;;;28.10;;
29432;SDS011;16405;53.964;13.448;2023-03-30T05:27:17;46.42;;;28.83;;
29432;SDS011;16405;53.964;13.448;2023-03-30T05:29:54;47.67;;;28.52;;
29432;SDS011;16405;53.964;13.448;2023-03-30T05:32:20;57.28;;;30.40;;
29432;SDS011;16405;53.964;13.448;2023-03-30T05:34:46;48.42;;;29.00;;
29432;SDS011;16405;53.964;13.448;2023-03-30T05:37:18;41.92;;;27.70;;
29432;SDS011;16405;53.964;13.448;2023-03-30T05:39:44;48.55;;;28.17;;
29432;SDS011;16405;53.964;13.448;2023-03-30T05:42:12;40.85;;;28.55;;
29432;SDS011;16405;53.964;13.448;2023-03-30T05:44:53;48.47;;;29.98;;
29432;SDS011;16405;53.964;13.448;2023-03-30T05:47:32;43.60;;;26.90;;
29432;SDS011;16405;53.964;13.448;2023-03-30T05:50:12;49.63;;;27.58;;
29432;SDS011;16405;53.964;13.448;2023-03-30T05:52:53;24.08;;;12.73;;
29432;SDS011;16405;53.964;13.448;2023-03-30T05:58:54;48.65;;;27.42;;
29432;SDS011;16405;53.964;13.448;2023-03-30T06:01:22;50.70;;;27.63;;
29432;SDS011;16405;53.964;13.448;2023-03-30T06:04:04;54.80;;;28.88;;
29432;SDS011;16405;53.964;13.448;2023-03-30T06:06:42;50.15;;;28.85;;
29432;SDS011;16405;53.964;13.448;2023-03-30T06:09:08;44.70;;;27.45;;
29432;SDS011;16405;53.964;13.448;2023-03-30T06:12:03;33.58;;;20.00;;
29432;SDS011;16405;53.964;13.448;2023-03-30T06:14:42;33.75;;;20.08;;
29432;SDS011;16405;53.964;13.448;2023-03-30T06:17:22;47.58;;;27.25;;
29432;SDS011;16405;53.964;13.448;2023-03-30T06:20:05;28.15;;;15.98;;
29432;SDS011;16405;53.964;13.448;2023-03-30T06:22:43;43.90;;;25.10;;
29432;SDS011;16405;53.964;13.448;2023-03-30T06:25:17;42.72;;;26.80;;
29432;SDS011;16405;53.964;13.448;2023-03-30T06:27:48;41.50;;;22.85;;
29432;SDS011;16405;53.964;13.448;2023-03-30T06:30:43;46.88;;;26.65;;
29432;SDS011;16405;53.964;13.448;2023-03-30T06:36:01;46.00;;;24.70;;
29432;SDS011;16405;53.964;13.448;2023-03-30T06:38:29;53.80;;;28.90;;
29432;SDS011;16405;53.964;13.448;2023-03-30T06:41:02;51.63;;;28.50;;
29432;SDS011;16405;53.964;13.448;2023-03-30T06:43:32;42.42;;;24.63;;
29432;SDS011;16405;53.964;13.448;2023-03-30T06:49:20;48.92;;;25.85;;
29432;SDS011;16405;53.964;13.448;2023-03-30T06:56:02;34.13;;;21.02;;
29432;SDS011;16405;53.964;13.448;2023-03-30T06:58:43;54.42;;;27.90;;
29432;SDS011;16405;53.964;13.448;2023-03-30T07:01:22;49.40;;;28.00;;
29432;SDS011;16405;53.964;13.448;2023-03-30T07:03:57;41.45;;;25.92;;
29432;SDS011;16405;53.964;13.448;2023-03-30T07:09:41;45.58;;;28.13;;
29432;SDS011;16405;53.964;13.448;2023-03-30T07:12:47;44.20;;;27.40;;
29432;SDS011;16405;53.964;13.448;2023-03-30T07:15:27;43.58;;;26.23;;
29432;SDS011;16405;53.964;13.448;2023-03-30T07:18:40;48.97;;;25.48;;
29432;SDS011;16405;53.964;13.448;2023-03-30T07:21:08;43.35;;;25.67;;
29432;SDS011;16405;53.964;13.448;2023-03-30T07:23:34;39.72;;;25.10;;
29432;SDS011;16405;53.964;13.448;2023-03-30T07:26:05;44.00;;;26.00;;
29432;SDS011;16405;53.964;13.448;2023-03-30T07:28:31;43.05;;;23.60;;
29432;SDS011;16405;53.964;13.448;2023-03-30T07:31:04;38.33;;;24.00;;
29432;SDS011;16405;53.964;13.448;2023-03-30T07:33:35;42.22;;;23.80;;
29432;SDS011;16405;53.964;13.448;2023-03-30T07:36:01;35.88;;;23.77;;
29432;SDS011;16405;53.964;13.448;2023-03-30T07:38:27;38.65;;;23.95;;
29432;SDS011;16405;53.964;13.448;2023-03-30T07:40:53;34.08;;;23.15;;
29432;SDS011;16405;53.964;13.448;2023-03-30T07:43:21;43.45;;;25.10;;
29432;SDS011;16405;53.964;13.448;2023-03-30T07:45:47;41.83;;;23.60;;
29432;SDS011;16405;53.964;13.448;2023-03-30T07:48:13;38.17;;;24.02;;
29432;SDS011;16405;53.964;13.448;2023-03-30T07:50:39;38.45;;;21.17;;
29432;SDS011;16405;53.964;13.448;2023-03-30T07:53:05;40.97;;;24.55;;
29432;SDS011;16405;53.964;13.448;2023-03-30T07:55:31;41.45;;;25.05;;
29432;SDS011;16405;53.964;13.448;2023-03-30T07:57:57;43.80;;;25.60;;
29432;SDS011;16405;53.964;13.448;2023-03-30T08:00:30;36.83;;;22.00;;
29432;SDS011;16405;53.964;13.448;2023-03-30T08:02:56;36.38;;;22.45;;
29432;SDS011;16405;53.964;13.448;2023-03-30T08:05:24;38.20;;;22.50;;
29432;SDS011;16405;53.964;13.448;2023-03-30T08:07:59;34.50;;;19.67;;
29432;SDS011;16405;53.964;13.448;2023-03-30T08:10:25;39.00;;;24.05;;
29432;SDS011;16405;53.964;13.448;2023-03-30T08:12:51;35.30;;;22.75;;
29432;SDS011;16405;53.964;13.448;2023-03-30T08:15:17;43.00;;;24.77;;
29432;SDS011;16405;53.964;13.448;2023-03-30T08:17:48;36.17;;;23.98;;
29432;SDS011;16405;53.964;13.448;2023-03-30T08:20:13;43.15;;;24.90;;
29432;SDS011;16405;53.964;13.448;2023-03-30T08:22:40;36.83;;;23.73;;
29432;SDS011;16405;53.964;13.448;2023-03-30T08:25:06;37.67;;;24.27;;
29432;SDS011;16405;53.964;13.448;2023-03-30T08:27:33;38.97;;;21.65;;
29432;SDS011;16405;53.964;13.448;2023-03-30T08:29:59;39.90;;;23.60;;
29432;SDS011;16405;53.964;13.448;2023-03-30T08:32:25;40.70;;;22.83;;
29432;SDS011;16405;53.964;13.448;2023-03-30T08:34:50;38.40;;;24.23;;
29432;SDS011;16405;53.964;13.448;2023-03-30T08:37:18;39.88;;;23.88;;
29432;SDS011;16405;53.964;13.448;2023-03-30T08:39:45;36.50;;;22.55;;
29432;SDS011;16405;53.964;13.448;2023-03-30T08:45:09;35.67;;;22.77;;
29432;SDS011;16405;53.964;13.448;2023-03-30T08:47:42;37.00;;;23.60;;
29432;SDS011;16405;53.964;13.448;2023-03-30T08:52:58;37.47;;;22.67;;
29432;SDS011;16405;53.964;13.448;2023-03-30T08:58:04;37.58;;;22.98;;
29432;SDS011;16405;53.964;13.448;2023-03-30T09:03:42;30.42;;;21.08;;
29432;SDS011;16405;53.964;13.448;2023-03-30T09:09:15;26.02;;;18.25;;
29432;SDS011;16405;53.964;13.448;2023-03-30T09:11:47;28.45;;;18.73;;
29432;SDS011;16405;53.964;13.448;2023-03-30T09:14:38;24.85;;;15.68;;
29432;SDS011;16405;53.964;13.448;2023-03-30T09:17:17;24.23;;;15.73;;
29432;SDS011;16405;53.964;13.448;2023-03-30T09:19:59;23.95;;;15.55;;
29432;SDS011;16405;53.964;13.448;2023-03-30T09:22:52;23.70;;;14.77;;
29432;SDS011;16405;53.964;13.448;2023-03-30T09:25:39;21.98;;;15.88;;
29432;SDS011;16405;53.964;13.448;2023-03-30T09:28:59;29.90;;;16.17;;
29432;SDS011;16405;53.964;13.448;2023-03-30T09:31:40;27.83;;;15.98;;
29432;SDS011;16405;53.964;13.448;2023-03-30T09:34:29;22.90;;;14.07;;
29432;SDS011;16405;53.964;13.448;2023-03-30T09:37:23;23.17;;;13.68;;
29432;SDS011;16405;53.964;13.448;2023-03-30T09:39:56;21.57;;;12.53;;
29432;SDS011;16405;53.964;13.448;2023-03-30T09:42:54;17.77;;;11.18;;
29432;SDS011;16405;53.964;13.448;2023-03-30T09:45:49;18.20;;;11.95;;
29432;SDS011;16405;53.964;13.448;2023-03-30T09:48:16;17.10;;;11.57;;
29432;SDS011;16405;53.964;13.448;2023-03-30T09:50:48;16.77;;;11.45;;
29432;SDS011;16405;53.964;13.448;2023-03-30T09:55:59;18.63;;;11.07;;
29432;SDS011;16405;53.964;13.448;2023-03-30T09:58:36;22.48;;;11.68;;
29432;SDS011;16405;53.964;13.448;2023-03-30T10:01:08;23.48;;;11.35;;
29432;SDS011;16405;53.964;13.448;2023-03-30T10:04:08;18.20;;;9.77;;
29432;SDS011;16405;53.964;13.448;2023-03-30T10:06:47;16.15;;;10.48;;
29432;SDS011;16405;53.964;13.448;2023-03-30T10:09:19;15.98;;;10.13;;
29432;SDS011;16405;53.964;13.448;2023-03-30T10:11:51;17.38;;;11.05;;
29432;SDS011;16405;53.964;13.448;2023-03-30T10:16:59;18.92;;;9.45;;
29432;SDS011;16405;53.964;13.448;2023-03-30T10:19:29;13.38;;;8.88;;
29432;SDS011;16405;53.964;13.448;2023-03-30T10:22:12;13.77;;;9.15;;
29432;SDS011;16405;53.964;13.448;2023-03-30T10:24:50;16.33;;;8.30;;
29432;SDS011;16405;53.964;13.448;2023-03-30T10:27:31;12.40;;;7.78;;
29432;SDS011;16405;53.964;13.448;2023-03-30T10:30:10;13.55;;;8.70;;
29432;SDS011;16405;53.964;13.448;2023-03-30T10:32:48;14.98;;;8.15;;
29432;SDS011;16405;53.964;13.448;2023-03-30T10:35:29;12.85;;;8.68;;
29432;SDS011;16405;53.964;13.448;2023-03-30T10:38:06;13.90;;;7.65;;
29432;SDS011;16405;53.964;13.448;2023-03-30T10:40:41;14.30;;;7.57;;
29432;SDS011;16405;53.964;13.448;2023-03-30T10:43:13;12.95;;;7.72;;
29432;SDS011;16405;53.964;13.448;2023-03-30T10:45:49;13.90;;;8.30;;
29432;SDS011;16405;53.964;13.448;2023-03-30T10:51:24;16.60;;;7.75;;
29432;SDS011;16405;53.964;13.448;2023-03-30T10:57:15;13.40;;;7.22;;
29432;SDS011;16405;53.964;13.448;2023-03-30T11:03:26;13.77;;;7.53;;
29432;SDS011;16405;53.964;13.448;2023-03-30T11:06:39;14.55;;;7.28;;
29432;SDS011;16405;53.964;13.448;2023-03-30T11:09:03;13.45;;;6.80;;
29432;SDS011;16405;53.964;13.448;2023-03-30T11:11:38;12.95;;;6.43;;
29432;SDS011;16405;53.964;13.448;2023-03-30T11:14:15;17.20;;;6.30;;
29432;SDS011;16405;53.964;13.448;2023-03-30T11:16:52;9.98;;;6.70;;
29432;SDS011;16405;53.964;13.448;2023-03-30T11:19:41;16.90;;;6.93;;
29432;SDS011;16405;53.964;13.448;2023-03-30T11:25:51;14.23;;;6.88;;
29432;SDS011;16405;53.964;13.448;2023-03-30T11:32:01;11.65;;;6.25;;
29432;SDS011;16405;53.964;13.448;2023-03-30T11:37:56;10.98;;;5.88;;
29432;SDS011;16405;53.964;13.448;2023-03-30T11:40:46;15.40;;;6.57;;
29432;SDS011;16405;53.964;13.448;2023-03-30T11:43:17;16.23;;;6.80;;
29432;SDS011;16405;53.964;13.448;2023-03-30T11:46:12;13.65;;;5.57;;
29432;SDS011;16405;53.964;13.448;2023-03-30T11:49:05;9.43;;;6.07;;
29432;SDS011;16405;53.964;13.448;2023-03-30T11:55:04;10.82;;;5.88;;
29432;SDS011;16405;53.964;13.448;2023-03-30T11:58:06;16.35;;;5.93;;
29432;SDS011;16405;53.964;13.448;2023-03-30T12:01:42;11.88;;;5.50;;
29432;SDS011;16405;53.964;13.448;2023-03-30T12:04:17;13.90;;;6.10;;
29432;SDS011;16405;53.964;13.448;2023-03-30T12:07:01;11.13;;;5.10;;
29432;SDS011;16405;53.964;13.448;2023-03-30T12:12:24;15.53;;;6.10;;
29432;SDS011;16405;53.964;13.448;2023-03-30T12:26:28;18.10;;;6.20;;
29432;SDS011;16405;53.964;13.448;2023-03-30T12:29:09;9.57;;;5.68;;
29432;SDS011;16405;53.964;13.448;2023-03-30T12:34:20;12.45;;;5.03;;
29432;SDS011;16405;53.964;13.448;2023-03-30T12:36:52;8.98;;;4.93;;
29432;SDS011;16405;53.964;13.448;2023-03-30T12:39:29;13.88;;;5.05;;
29432;SDS011;16405;53.964;13.448;2023-03-30T13:04:32;11.50;;;4.60;;
29432;SDS011;16405;53.964;13.448;2023-03-30T13:07:03;11.90;;;4.07;;
29432;SDS011;16405;53.964;13.448;2023-03-30T13:10:01;9.50;;;4.03;;
29432;SDS011;16405;53.964;13.448;2023-03-30T13:12:58;11.38;;;4.70;;
29432;SDS011;16405;53.964;13.448;2023-03-30T13:15:32;11.68;;;4.30;;
29432;SDS011;16405;53.964;13.448;2023-03-30T13:21:03;10.02;;;3.95;;
29432;SDS011;16405;53.964;13.448;2023-03-30T13:24:03;8.20;;;3.22;;
29432;SDS011;16405;53.964;13.448;2023-03-30T13:47:02;13.35;;;4.25;;
29432;SDS011;16405;53.964;13.448;2023-03-30T13:50:02;18.20;;;4.45;;
29432;SDS011;16405;53.964;13.448;2023-03-30T13:53:07;2.33;;;0.90;;
29432;SDS011;16405;53.964;13.448;2023-03-30T13:55:38;2.10;;;0.82;;
29432;SDS011;16405;53.964;13.448;2023-03-30T13:58:16;3.15;;;1.00;;
29432;SDS011;16405;53.964;13.448;2023-03-30T14:00:56;6.93;;;0.82;;
29432;SDS011;16405;53.964;13.448;2023-03-30T14:08:38;4.20;;;0.85;;
29432;SDS011;16405;53.964;13.448;2023-03-30T14:11:16;3.85;;;1.00;;
29432;SDS011;16405;53.964;13.448;2023-03-30T14:16:25;8.00;;;2.00;;
29432;SDS011;16405;53.964;13.448;2023-03-30T14:22:00;5.18;;;2.00;;
29432;SDS011;16405;53.964;13.448;2023-03-30T14:24:54;10.05;;;1.98;;
29432;SDS011;16405;53.964;13.448;2023-03-30T14:27:30;8.02;;;2.72;;
29432;SDS011;16405;53.964;13.448;2023-03-30T14:30:10;9.32;;;2.78;;
29432;SDS011;16405;53.964;13.448;2023-03-30T14:35:51;8.05;;;2.50;;
29432;SDS011;16405;53.964;13.448;2023-03-30T14:41:17;10.73;;;2.83;;
29432;SDS011;16405;53.964;13.448;2023-03-30T14:43:55;7.35;;;2.65;;
29432;SDS011;16405;53.964;13.448;2023-03-30T14:46:40;5.53;;;2.50;;
29432;SDS011;16405;53.964;13.448;2023-03-30T14:49:22;9.23;;;2.85;;
29432;SDS011;16405;53.964;13.448;2023-03-30T14:52:00;9.82;;;2.30;;
29432;SDS011;16405;53.964;13.448;2023-03-30T14:54:41;6.63;;;2.30;;
29432;SDS011;16405;53.964;13.448;2023-03-30T14:57:10;5.70;;;2.22;;
29432;SDS011;16405;53.964;13.448;2023-03-30T14:59:41;5.75;;;1.98;;
29432;SDS011;16405;53.964;13.448;2023-03-30T15:02:23;9.82;;;2.10;;
29432;SDS011;16405;53.964;13.448;2023-03-30T15:04:54;5.32;;;2.00;;
29432;SDS011;16405;53.964;13.448;2023-03-30T15:07:21;9.77;;;2.20;;
29432;SDS011;16405;53.964;13.448;2023-03-30T15:09:55;4.65;;;1.90;;
29432;SDS011;16405;53.964;13.448;2023-03-30T15:12:34;4.80;;;1.77;;
29432;SDS011;16405;53.964;13.448;2023-03-30T15:15:05;8.55;;;1.85;;
29432;SDS011;16405;53.964;13.448;2023-03-30T15:17:35;3.88;;;1.85;;
29432;SDS011;16405;53.964;13.448;2023-03-30T15:20:05;7.68;;;1.95;;
29432;SDS011;16405;53.964;13.448;2023-03-30T15:22:36;7.65;;;2.15;;
29432;SDS011;16405;53.964;13.448;2023-03-30T15:25:16;4.75;;;1.90;;
29432;SDS011;16405;53.964;13.448;2023-03-30T15:28:03;6.05;;;2.53;;
29432;SDS011;16405;53.964;13.448;2023-03-30T15:30:44;10.15;;;2.75;;
29432;SDS011;16405;53.964;13.448;2023-03-30T15:33:22;12.65;;;2.15;;
29432;SDS011;16405;53.964;13.448;2023-03-30T15:36:10;10.05;;;1.92;;
29432;SDS011;16405;53.964;13.448;2023-03-30T15:38:53;12.43;;;2.10;;
29432;SDS011;16405;53.964;13.448;2023-03-30T15:44:20;8.75;;;1.88;;
29432;SDS011;16405;53.964;13.448;2023-03-30T15:47:02;7.57;;;1.60;;
29432;SDS011;16405;53.964;13.448;2023-03-30T15:49:44;7.70;;;1.95;;
29432;SDS011;16405;53.964;13.448;2023-03-30T16:03:04;4.60;;;1.70;;
29432;SDS011;16405;53.964;13.448;2023-03-30T16:06:16;4.57;;;1.60;;
29432;SDS011;16405;53.964;13.448;2023-03-30T16:09:14;4.72;;;1.70;;
29432;SDS011;16405;53.964;13.448;2023-03-30T16:14:53;7.72;;;1.73;;
29432;SDS011;16405;53.964;13.448;2023-03-30T16:17:25;6.65;;;1.70;;
29432;SDS011;16405;53.964;13.448;2023-03-30T16:20:11;7.97;;;1.98;;
29432;SDS011;16405;53.964;13.448;2023-03-30T16:23:35;5.32;;;1.95;;
29432;SDS011;16405;53.964;13.448;2023-03-30T16:26:33;11.15;;;2.08;;
29432;SDS011;16405;53.964;13.448;2023-03-30T16:32:24;10.50;;;2.03;;
29432;SDS011;16405;53.964;13.448;2023-03-30T16:35:05;12.13;;;2.50;;
29432;SDS011;16405;53.964;13.448;2023-03-30T16:37:41;14.38;;;2.00;;
29432;SDS011;16405;53.964;13.448;2023-03-30T16:40:28;11.60;;;2.35;;
29432;SDS011;16405;53.964;13.448;2023-03-30T16:43:02;8.68;;;2.30;;
29432;SDS011;16405;53.964;13.448;2023-03-30T16:45:29;17.55;;;2.85;;
29432;SDS011;16405;53.964;13.448;2023-03-30T16:47:56;14.30;;;2.65;;
29432;SDS011;16405;53.964;13.448;2023-03-30T16:50:37;13.95;;;2.35;;
29432;SDS011;16405;53.964;13.448;2023-03-30T16:53:13;10.23;;;2.17;;
29432;SDS011;16405;53.964;13.448;2023-03-30T16:55:39;13.00;;;2.60;;
29432;SDS011;16405;53.964;13.448;2023-03-30T16:58:11;13.40;;;2.70;;
29432;SDS011;16405;53.964;13.448;2023-03-30T17:00:42;11.32;;;2.60;;
29432;SDS011;16405;53.964;13.448;2023-03-30T17:03:13;14.48;;;2.50;;
29432;SDS011;16405;53.964;13.448;2023-03-30T17:05:41;10.45;;;2.10;;
29432;SDS011;16405;53.964;13.448;2023-03-30T17:08:22;13.52;;;2.65;;
29432;SDS011;16405;53.964;13.448;2023-03-30T17:10:51;19.63;;;2.55;;
29432;SDS011;16405;53.964;13.448;2023-03-30T17:13:23;16.30;;;2.85;;
29432;SDS011;16405;53.964;13.448;2023-03-30T17:15:49;14.57;;;2.65;;
29432;SDS011;16405;53.964;13.448;2023-03-30T17:18:19;13.63;;;2.35;;
29432;SDS011;16405;53.964;13.448;2023-03-30T17:20:54;15.15;;;3.20;;
29432;SDS011;16405;53.964;13.448;2023-03-30T17:23:25;13.70;;;3.03;;
29432;SDS011;16405;53.964;13.448;2023-03-30T17:25:58;15.80;;;2.63;;
29432;SDS011;16405;53.964;13.448;2023-03-30T17:28:26;17.02;;;3.10;;
29432;SDS011;16405;53.964;13.448;2023-03-30T17:30:59;15.75;;;3.20;;
29432;SDS011;16405;53.964;13.448;2023-03-30T17:33:27;16.13;;;2.95;;
29432;SDS011;16405;53.964;13.448;2023-03-30T17:38:45;12.07;;;2.92;;
29432;SDS011;16405;53.964;13.448;2023-03-30T17:41:12;16.83;;;3.05;;
29432;SDS011;16405;53.964;13.448;2023-03-30T17:43:45;14.02;;;2.90;;
29432;SDS011;16405;53.964;13.448;2023-03-30T17:46:12;18.92;;;3.30;;
29432;SDS011;16405;53.964;13.448;2023-03-30T17:48:41;18.80;;;3.50;;
29432;SDS011;16405;53.964;13.448;2023-03-30T17:51:09;19.02;;;3.38;;
29432;SDS011;16405;53.964;13.448;2023-03-30T17:53:38;15.43;;;3.35;;
29432;SDS011;16405;53.964;13.448;2023-03-30T17:56:04;12.45;;;2.95;;
29432;SDS011;16405;53.964;13.448;2023-03-30T17:58:31;22.60;;;4.57;;
29432;SDS011;16405;53.964;13.448;2023-03-30T18:01:02;19.42;;;3.72;;
29432;SDS011;16405;53.964;13.448;2023-03-30T18:03:31;15.27;;;3.58;;
29432;SDS011;16405;53.964;13.448;2023-03-30T18:05:58;13.18;;;3.78;;
29432;SDS011;16405;53.964;13.448;2023-03-30T18:08:26;16.25;;;3.80;;
29432;SDS011;16405;53.964;13.448;2023-03-30T18:11:01;15.05;;;4.32;;
29432;SDS011;16405;53.964;13.448;2023-03-30T18:13:28;16.17;;;4.40;;
29432;SDS011;16405;53.964;13.448;2023-03-30T18:15:55;18.95;;;4.13;;
29432;SDS011;16405;53.964;13.448;2023-03-30T18:18:27;15.85;;;4.13;;
29432;SDS011;16405;53.964;13.448;2023-03-30T18:21:01;14.63;;;4.18;;
29432;SDS011;16405;53.964;13.448;2023-03-30T18:23:30;20.17;;;4.40;;